Time;durP1;ratioP1;P1;durP2;ratioP2;P2;SDS_P1;SDS_P2;PMS_P1;PMS_P2;Temp;Humidity;BMP_temperature;BMP_pressure;BME280_temperature;BME280_humidity;BME280_pressure;Samples;Min_cycle;Max_cycle;Signal;HPM_P1;HPM_P2
2024/02/26 00:01:45;;;;;;;4.68;3.08;;;6.70;99.90;;;;;;5056430;28;20097;-85
2024/02/26 00:04:18;;;;;;;3.85;2.90;;;6.70;99.90;;;;;;5039460;28;20025;-85
2024/02/26 00:06:44;;;;;;;5.00;3.30;;;6.70;99.90;;;;;;5039041;28;20029;-86
2024/02/26 00:09:10;;;;;;;3.30;3.00;;;6.70;99.90;;;;;;5055420;28;20427;-85
2024/02/26 00:11:37;;;;;;;5.75;3.47;;;6.70;99.90;;;;;;5022359;28;20029;-84
2024/02/26 00:14:03;;;;;;;3.78;3.28;;;6.70;99.90;;;;;;5056063;28;20079;-85
2024/02/26 00:16:29;;;;;;;4.20;3.10;;;6.70;99.90;;;;;;5062227;28;20033;-86
2024/02/26 00:19:01;;;;;;;4.03;3.05;;;6.70;99.90;;;;;;5059910;28;20029;-86
2024/02/26 00:21:26;;;;;;;3.75;3.35;;;6.70;99.90;;;;;;5058580;28;20381;-84
2024/02/26 00:23:53;;;;;;;4.97;3.17;;;6.70;99.90;;;;;;5039245;28;20123;-85
2024/02/26 00:26:19;;;;;;;3.70;3.10;;;6.70;99.90;;;;;;5038503;28;20035;-85
2024/02/26 00:28:45;;;;;;;3.83;2.75;;;6.60;99.90;;;;;;5038294;28;20472;-86
2024/02/26 00:31:11;;;;;;;3.58;2.95;;;6.60;99.90;;;;;;5038418;28;20068;-85
2024/02/26 00:33:37;;;;;;;4.22;2.88;;;6.70;99.90;;;;;;5054912;28;20032;-86
2024/02/26 00:36:03;;;;;;;5.30;3.53;;;6.70;99.90;;;;;;5005214;28;20033;-85
2024/02/26 00:38:32;;;;;;;5.10;3.50;;;6.60;99.90;;;;;;5022131;28;20446;-85
2024/02/26 00:41:00;;;;;;;4.05;3.45;;;6.60;99.90;;;;;;5021417;28;20029;-85
2024/02/26 00:43:26;;;;;;;4.65;3.60;;;6.60;99.90;;;;;;5038000;28;20025;-85
2024/02/26 00:45:52;;;;;;;3.83;3.22;;;6.70;99.90;;;;;;5021541;28;20029;-85
2024/02/26 00:48:18;;;;;;;3.83;3.28;;;6.60;99.90;;;;;;5037776;28;20152;-85
2024/02/26 00:50:43;;;;;;;5.75;3.80;;;6.60;99.90;;;;;;5056095;28;20076;-86
2024/02/26 00:53:09;;;;;;;4.30;3.38;;;6.60;99.90;;;;;;5037862;28;20029;-86
2024/02/26 00:55:35;;;;;;;4.43;3.38;;;6.60;99.90;;;;;;5021364;28;20033;-86
2024/02/26 00:58:00;;;;;;;5.07;3.75;;;6.60;99.90;;;;;;5021814;28;20619;-85
2024/02/26 01:00:26;;;;;;;3.83;3.42;;;6.60;99.90;;;;;;5038703;28;20036;-86
2024/02/26 01:02:51;;;;;;;3.90;3.50;;;6.60;99.90;;;;;;5024217;28;20488;-86
2024/02/26 01:05:17;;;;;;;4.40;3.85;;;6.60;99.90;;;;;;5074959;28;20028;-84
2024/02/26 01:07:43;;;;;;;4.53;3.40;;;6.60;99.90;;;;;;5061797;28;20033;-85
2024/02/26 01:10:09;;;;;;;4.38;3.75;;;6.60;99.90;;;;;;5078016;28;20033;-84
2024/02/26 01:12:35;;;;;;;5.03;4.10;;;6.60;99.90;;;;;;5048919;28;20029;-85
2024/02/26 01:15:04;;;;;;;4.82;3.00;;;6.60;99.90;;;;;;5020983;28;20127;-86
2024/02/26 01:17:30;;;;;;;6.65;3.83;;;6.60;99.90;;;;;;5037832;28;20056;-87
2024/02/26 01:19:56;;;;;;;4.05;3.63;;;6.60;99.90;;;;;;5037673;28;20061;-86
2024/02/26 01:22:22;;;;;;;5.93;3.35;;;6.70;99.90;;;;;;5003256;28;20127;-86
2024/02/26 01:24:48;;;;;;;4.63;3.10;;;6.70;99.90;;;;;;5020423;28;20036;-84
2024/02/26 01:27:15;;;;;;;5.38;3.65;;;6.70;99.90;;;;;;5020693;28;20111;-84
2024/02/26 01:29:41;;;;;;;3.88;3.33;;;6.70;99.90;;;;;;5037225;28;20037;-85
2024/02/26 01:32:06;;;;;;;3.85;3.10;;;6.70;99.90;;;;;;5037193;28;20083;-84
2024/02/26 01:34:32;;;;;;;4.15;3.40;;;6.70;99.90;;;;;;5020969;28;20025;-85
2024/02/26 01:37:01;;;;;;;4.55;3.50;;;6.70;99.90;;;;;;5020245;28;20025;-85
2024/02/26 01:39:28;;;;;;;3.03;2.67;;;6.80;99.90;;;;;;5004231;28;20025;-85
2024/02/26 01:41:54;;;;;;;5.55;3.20;;;6.70;99.90;;;;;;5037271;28;20063;-85
2024/02/26 01:44:21;;;;;;;6.05;3.08;;;6.80;99.90;;;;;;5037256;28;20028;-84
2024/02/26 01:46:47;;;;;;;4.15;2.92;;;6.80;99.90;;;;;;5020999;28;20037;-85
2024/02/26 01:49:14;;;;;;;3.65;2.90;;;6.80;99.90;;;;;;5054438;28;20064;-85
2024/02/26 01:51:41;;;;;;;4.30;3.17;;;6.80;99.90;;;;;;5037225;28;20033;-86
2024/02/26 01:54:08;;;;;;;3.70;3.00;;;6.80;99.90;;;;;;5020934;28;20393;-86
2024/02/26 01:56:36;;;;;;;4.55;3.05;;;6.80;99.90;;;;;;5053921;28;20025;-85
2024/02/26 01:59:02;;;;;;;3.63;2.88;;;6.90;99.90;;;;;;5037166;28;20065;-86
2024/02/26 02:01:33;;;;;;;4.95;4.00;;;6.80;99.90;;;;;;5020555;28;20087;-86
2024/02/26 02:04:00;;;;;;;3.60;2.97;;;6.90;99.90;;;;;;5054948;28;20040;-85
2024/02/26 02:06:29;;;;;;;6.57;3.45;;;6.90;99.90;;;;;;5020434;28;20025;-86
2024/02/26 02:08:55;;;;;;;4.50;3.30;;;6.90;99.90;;;;;;5020374;28;20461;-86
2024/02/26 02:11:21;;;;;;;3.92;3.05;;;6.80;99.90;;;;;;5019836;28;20128;-84
2024/02/26 02:13:46;;;;;;;5.15;3.40;;;6.80;99.90;;;;;;5036172;28;20388;-85
2024/02/26 02:16:12;;;;;;;5.22;3.95;;;6.80;99.90;;;;;;5020586;28;20090;-86
2024/02/26 02:18:38;;;;;;;5.65;3.70;;;6.80;99.90;;;;;;5056796;28;20513;-86
2024/02/26 02:21:04;;;;;;;4.07;3.60;;;6.90;99.90;;;;;;5004509;28;20035;-86
2024/02/26 02:23:30;;;;;;;4.20;3.40;;;6.80;99.90;;;;;;5053065;28;20025;-86
2024/02/26 02:26:00;;;;;;;4.10;3.22;;;6.80;99.90;;;;;;5036997;28;20025;-86
2024/02/26 02:28:30;;;;;;;4.83;3.47;;;6.80;99.90;;;;;;5034792;28;20088;-84
2024/02/26 02:30:56;;;;;;;7.25;4.38;;;6.80;99.90;;;;;;5061155;28;20033;-86
2024/02/26 02:33:22;;;;;;;5.72;3.90;;;6.80;99.90;;;;;;5062217;28;20025;-84
2024/02/26 02:35:50;;;;;;;4.78;3.80;;;6.80;99.90;;;;;;5061206;28;20025;-86
2024/02/26 02:38:16;;;;;;;5.55;4.32;;;6.80;99.90;;;;;;5008663;28;20476;-86
2024/02/26 02:40:42;;;;;;;5.32;3.97;;;6.80;99.90;;;;;;5007570;28;20048;-85
2024/02/26 02:43:07;;;;;;;4.82;3.92;;;6.70;99.90;;;;;;5023652;28;20087;-84
2024/02/26 02:45:33;;;;;;;4.57;3.72;;;6.80;99.90;;;;;;5023437;28;20021;-85
2024/02/26 02:47:59;;;;;;;7.30;3.95;;;6.70;99.90;;;;;;5007301;28;20075;-86
2024/02/26 02:50:24;;;;;;;5.25;4.07;;;6.70;99.90;;;;;;5040309;28;20561;-85
2024/02/26 02:52:50;;;;;;;5.47;4.15;;;6.70;99.90;;;;;;5024164;28;20037;-86
2024/02/26 02:55:16;;;;;;;6.13;3.50;;;6.70;99.90;;;;;;5024322;28;20096;-85
2024/02/26 02:57:42;;;;;;;5.20;3.70;;;6.70;99.90;;;;;;5023906;28;20029;-86
2024/02/26 03:00:11;;;;;;;5.65;4.15;;;6.70;99.90;;;;;;5024071;28;20051;-86
2024/02/26 03:02:37;;;;;;;5.82;4.25;;;6.70;99.90;;;;;;5061243;28;20017;-85
2024/02/26 03:05:04;;;;;;;4.82;3.97;;;6.70;99.90;;;;;;5060555;28;20048;-84
2024/02/26 03:07:30;;;;;;;5.32;4.00;;;6.70;99.90;;;;;;5046407;28;20115;-86
2024/02/26 03:09:56;;;;;;;4.93;4.13;;;6.70;99.90;;;;;;5062265;28;20064;-86
2024/02/26 03:12:21;;;;;;;5.07;4.15;;;6.70;99.90;;;;;;5043044;28;20384;-85
2024/02/26 03:14:47;;;;;;;4.75;3.85;;;6.60;99.90;;;;;;5023494;28;20508;-86
2024/02/26 03:17:13;;;;;;;5.25;4.03;;;6.60;99.90;;;;;;5039849;28;20068;-85
2024/02/26 03:19:38;;;;;;;5.68;4.07;;;6.60;99.90;;;;;;5007080;28;20051;-85
2024/02/26 03:22:04;;;;;;;4.50;3.63;;;6.60;99.90;;;;;;5006801;28;20029;-86
2024/02/26 03:24:30;;;;;;;5.18;3.75;;;6.60;99.90;;;;;;5006591;28;20029;-86
2024/02/26 03:26:56;;;;;;;5.72;4.45;;;6.60;99.90;;;;;;5039457;28;20048;-86
2024/02/26 03:29:22;;;;;;;5.85;3.85;;;6.60;99.90;;;;;;5056146;28;20029;-85
2024/02/26 03:31:47;;;;;;;5.25;4.00;;;6.60;99.90;;;;;;5039809;28;20085;-86
2024/02/26 03:34:14;;;;;;;4.13;3.67;;;6.50;99.90;;;;;;5006888;28;20043;-85
2024/02/26 03:36:41;;;;;;;4.25;3.80;;;6.50;99.90;;;;;;5039601;28;20091;-86
2024/02/26 03:39:07;;;;;;;4.63;3.72;;;6.60;99.90;;;;;;5056459;28;20126;-85
2024/02/26 03:41:36;;;;;;;6.40;4.45;;;6.60;99.90;;;;;;5039728;28;20495;-84
2024/02/26 03:44:02;;;;;;;6.65;3.92;;;6.60;99.90;;;;;;5039931;28;20562;-85
2024/02/26 03:46:31;;;;;;;4.88;3.72;;;6.60;99.90;;;;;;5040872;28;20039;-86
2024/02/26 03:48:56;;;;;;;4.53;4.07;;;6.70;99.90;;;;;;5039615;28;20025;-85
2024/02/26 03:51:22;;;;;;;5.40;3.95;;;6.60;99.90;;;;;;5014419;28;20036;-84
2024/02/26 03:53:47;;;;;;;4.72;3.80;;;6.70;99.90;;;;;;5063118;28;20020;-86
2024/02/26 03:56:13;;;;;;;3.60;3.30;;;6.70;99.90;;;;;;5063385;28;20024;-86
2024/02/26 03:58:39;;;;;;;4.90;3.38;;;6.70;99.90;;;;;;5030520;28;20020;-85
2024/02/26 04:01:07;;;;;;;3.65;3.25;;;6.70;99.90;;;;;;5062350;28;20055;-86
2024/02/26 04:03:33;;;;;;;4.75;3.70;;;6.70;99.90;;;;;;5055909;28;20029;-86
2024/02/26 04:05:59;;;;;;;4.30;3.20;;;6.70;99.90;;;;;;5055710;28;20032;-86
2024/02/26 04:08:24;;;;;;;3.70;3.13;;;6.70;99.90;;;;;;5022149;28;20094;-86
2024/02/26 04:10:50;;;;;;;3.55;3.08;;;6.80;99.90;;;;;;5038764;28;20078;-85
2024/02/26 04:13:17;;;;;;;4.00;3.15;;;6.80;99.90;;;;;;5005795;28;20390;-86
2024/02/26 04:15:43;;;;;;;3.53;3.22;;;6.80;99.90;;;;;;5054889;28;20303;-85
2024/02/26 04:18:08;;;;;;;4.85;3.25;;;6.90;99.90;;;;;;5005732;28;20035;-85
2024/02/26 04:20:34;;;;;;;4.03;3.30;;;6.90;99.90;;;;;;5054828;28;20021;-85
2024/02/26 04:23:00;;;;;;;3.53;3.20;;;6.90;99.90;;;;;;5055060;28;20041;-85
2024/02/26 04:25:28;;;;;;;5.18;3.85;;;6.90;99.90;;;;;;5038520;28;20028;-83
2024/02/26 04:27:54;;;;;;;4.18;3.20;;;6.90;99.90;;;;;;5038633;28;20090;-86
2024/02/26 04:30:20;;;;;;;4.28;3.60;;;6.80;99.90;;;;;;5005228;28;20033;-85
2024/02/26 04:32:46;;;;;;;4.88;3.78;;;6.80;99.90;;;;;;5021335;28;20041;-86
2024/02/26 04:35:11;;;;;;;5.13;3.78;;;6.80;99.90;;;;;;5038223;28;20031;-85
2024/02/26 04:37:37;;;;;;;4.35;3.65;;;6.80;99.90;;;;;;5021288;28;20398;-84
2024/02/26 04:40:04;;;;;;;5.80;4.60;;;6.80;99.90;;;;;;5021684;28;20029;-85
2024/02/26 04:42:29;;;;;;;4.60;3.47;;;6.70;99.90;;;;;;5037846;28;20491;-84
2024/02/26 04:44:55;;;;;;;4.45;3.83;;;6.70;99.90;;;;;;5037672;28;20053;-86
2024/02/26 04:47:22;;;;;;;4.45;3.55;;;6.70;99.90;;;;;;5037730;28;20098;-86
2024/02/26 04:49:49;;;;;;;5.20;3.45;;;6.70;99.90;;;;;;5055340;28;20033;-85
2024/02/26 04:52:15;;;;;;;4.07;3.47;;;6.70;99.90;;;;;;5038161;28;20112;-86
2024/02/26 04:54:40;;;;;;;5.88;3.42;;;6.70;99.90;;;;;;5020953;28;20061;-85
2024/02/26 04:57:06;;;;;;;4.20;3.80;;;6.70;99.90;;;;;;5037481;28;20516;-86
2024/02/26 04:59:32;;;;;;;3.47;3.17;;;6.70;99.90;;;;;;5020876;28;20469;-85
2024/02/26 05:02:00;;;;;;;3.97;3.33;;;6.70;99.90;;;;;;5055322;28;20055;-85
2024/02/26 05:04:26;;;;;;;5.93;4.07;;;6.70;99.90;;;;;;5020907;28;20036;-85
2024/02/26 05:06:53;;;;;;;5.22;3.90;;;6.70;99.90;;;;;;5004656;28;20441;-85
2024/02/26 05:09:19;;;;;;;4.05;3.65;;;6.70;99.90;;;;;;5037777;28;20065;-85
2024/02/26 05:11:44;;;;;;;4.55;3.70;;;6.80;99.90;;;;;;5006396;28;20479;-86
2024/02/26 05:14:10;;;;;;;3.90;3.33;;;6.70;99.90;;;;;;5027313;28;20057;-85
2024/02/26 05:16:36;;;;;;;3.88;3.30;;;6.70;99.90;;;;;;5078262;28;20086;-83
2024/02/26 05:19:07;;;;;;;4.70;3.55;;;6.70;99.90;;;;;;5061078;28;20032;-85
2024/02/26 05:21:33;;;;;;;6.35;3.33;;;6.70;99.90;;;;;;5078219;28;20076;-83
2024/02/26 05:23:59;;;;;;;3.92;3.17;;;6.70;99.90;;;;;;5047507;28;20028;-86
2024/02/26 05:26:25;;;;;;;3.95;3.10;;;6.70;99.90;;;;;;5005569;28;20439;-89
2024/02/26 05:28:51;;;;;;;4.93;3.72;;;6.70;99.90;;;;;;5055946;28;20033;-90
2024/02/26 05:31:17;;;;;;;5.25;3.67;;;6.70;99.90;;;;;;5038360;28;20056;-88
2024/02/26 05:33:43;;;;;;;3.97;3.58;;;6.70;99.90;;;;;;5037838;28;20032;-88
2024/02/26 05:36:17;;;;;;;4.82;3.42;;;6.60;99.90;;;;;;5021136;28;20362;-90
2024/02/26 05:38:46;;;;;;;6.13;3.65;;;6.60;99.90;;;;;;5054187;28;20025;-87
2024/02/26 05:41:12;;;;;;;4.45;3.70;;;6.60;99.90;;;;;;5036846;28;20033;-87
2024/02/26 05:43:37;;;;;;;4.95;3.40;;;6.60;99.90;;;;;;5036583;28;20397;-86
2024/02/26 05:46:03;;;;;;;4.63;3.83;;;6.60;99.90;;;;;;5037461;28;20092;-87
2024/02/26 05:48:29;;;;;;;5.95;4.30;;;6.60;99.90;;;;;;5004350;28;20442;-87
2024/02/26 05:50:54;;;;;;;6.22;4.20;;;6.60;99.90;;;;;;5004282;28;20401;-87
2024/02/26 05:53:20;;;;;;;5.03;3.95;;;6.50;99.90;;;;;;5023314;28;20052;-87
2024/02/26 05:55:46;;;;;;;4.40;3.63;;;6.50;99.90;;;;;;5042745;28;20044;-86
2024/02/26 05:58:11;;;;;;;4.95;3.97;;;6.60;99.90;;;;;;5042904;28;20033;-87
2024/02/26 06:00:37;;;;;;;5.75;4.20;;;6.60;99.90;;;;;;5042137;28;20358;-86
2024/02/26 06:03:06;;;;;;;6.20;4.10;;;6.60;99.90;;;;;;5038440;28;20116;-87
2024/02/26 06:05:31;;;;;;;5.05;4.00;;;6.50;99.90;;;;;;5054946;28;20025;-88
2024/02/26 06:08:00;;;;;;;4.40;3.67;;;6.60;99.90;;;;;;5036365;28;20136;-86
2024/02/26 06:10:26;;;;;;;5.95;4.28;;;6.50;99.90;;;;;;5019799;28;20033;-86
2024/02/26 06:12:52;;;;;;;4.72;3.75;;;6.50;99.90;;;;;;5020602;28;20087;-88
2024/02/26 06:15:17;;;;;;;7.00;4.78;;;6.50;99.90;;;;;;5036611;28;20049;-87
2024/02/26 06:17:43;;;;;;;6.55;4.50;;;6.60;99.90;;;;;;5019913;28;20033;-87
2024/02/26 06:20:12;;;;;;;4.50;3.75;;;6.50;99.90;;;;;;5054673;28;20035;-87
2024/02/26 06:22:40;;;;;;;5.47;4.00;;;6.50;99.90;;;;;;5004431;28;20132;-86
2024/02/26 06:25:05;;;;;;;5.88;3.95;;;6.50;99.90;;;;;;5037242;28;20448;-88
2024/02/26 06:27:31;;;;;;;5.90;4.15;;;6.50;99.90;;;;;;5053359;28;20029;-86
2024/02/26 06:29:59;;;;;;;4.18;3.63;;;6.50;99.90;;;;;;5020608;28;20029;-88
2024/02/26 06:32:27;;;;;;;5.55;4.28;;;6.50;99.90;;;;;;5054388;28;20171;-87
2024/02/26 06:34:53;;;;;;;5.50;4.03;;;6.40;99.90;;;;;;5040828;28;20056;-88
2024/02/26 06:37:19;;;;;;;4.97;3.88;;;6.40;99.90;;;;;;5076154;28;20025;-86
2024/02/26 06:39:44;;;;;;;5.47;4.55;;;6.40;99.90;;;;;;5027684;28;20028;-87
2024/02/26 06:42:10;;;;;;;5.10;4.10;;;6.40;99.90;;;;;;5060564;28;20013;-85
2024/02/26 06:44:36;;;;;;;5.30;4.70;;;6.40;99.90;;;;;;5027924;28;20029;-88
2024/02/26 06:47:01;;;;;;;6.13;4.15;;;6.40;99.90;;;;;;5071802;28;20013;-88
2024/02/26 06:49:30;;;;;;;5.30;4.07;;;6.30;99.90;;;;;;5066076;28;20470;-89
2024/02/26 06:51:56;;;;;;;4.75;4.07;;;6.30;99.90;;;;;;5020272;28;20034;-87
2024/02/26 06:54:21;;;;;;;5.07;4.30;;;6.30;99.90;;;;;;5037141;28;20370;-88
2024/02/26 06:56:47;;;;;;;6.72;4.40;;;6.30;99.90;;;;;;5036602;28;20025;-88
2024/02/26 06:59:13;;;;;;;4.80;4.07;;;6.30;99.90;;;;;;5004573;28;20055;-87
2024/02/26 07:01:41;;;;;;;5.22;4.68;;;6.30;99.90;;;;;;5054554;28;20396;-88
2024/02/26 07:04:07;;;;;;;6.72;5.05;;;6.40;99.90;;;;;;5036887;28;20021;-88
2024/02/26 07:06:32;;;;;;;7.05;4.80;;;6.30;99.90;;;;;;5053541;28;20139;-88
2024/02/26 07:08:58;;;;;;;7.13;5.00;;;6.30;99.90;;;;;;5036447;28;20388;-87
2024/02/26 07:11:24;;;;;;;6.88;4.97;;;6.30;99.90;;;;;;5053451;28;20104;-88
2024/02/26 07:13:49;;;;;;;7.85;4.97;;;6.30;99.90;;;;;;5036299;28;20021;-88
2024/02/26 07:16:15;;;;;;;6.90;5.43;;;6.30;99.90;;;;;;5036116;28;20128;-87
2024/02/26 07:18:43;;;;;;;6.72;5.57;;;6.30;99.90;;;;;;5053006;28;20112;-87
2024/02/26 07:21:09;;;;;;;10.73;6.10;;;6.20;99.90;;;;;;5023134;28;20048;-89
2024/02/26 07:23:35;;;;;;;6.18;5.03;;;6.20;99.90;;;;;;5055868;28;20029;-88
2024/02/26 07:26:00;;;;;;;7.32;5.35;;;6.20;99.90;;;;;;5023166;28;20479;-87
2024/02/26 07:28:26;;;;;;;6.32;5.40;;;6.20;99.90;;;;;;5056273;28;20059;-89
2024/02/26 07:30:52;;;;;;;11.45;6.18;;;6.20;99.90;;;;;;5057194;28;20087;-88
2024/02/26 07:33:18;;;;;;;7.18;5.72;;;6.20;99.90;;;;;;5057131;28;20092;-88
2024/02/26 07:35:43;;;;;;;6.82;5.60;;;6.10;99.90;;;;;;5039264;28;20033;-89
2024/02/26 07:38:09;;;;;;;7.80;6.03;;;6.10;99.90;;;;;;5039580;28;20112;-87
2024/02/26 07:40:36;;;;;;;8.88;6.75;;;6.20;99.90;;;;;;5039687;28;20028;-88
2024/02/26 07:43:01;;;;;;;8.70;6.70;;;6.10;99.90;;;;;;5039775;28;20021;-88
2024/02/26 07:45:27;;;;;;;8.82;7.00;;;6.10;99.90;;;;;;5056074;28;20408;-88
2024/02/26 07:47:53;;;;;;;9.75;7.30;;;6.10;99.90;;;;;;5055468;28;20028;-88
2024/02/26 07:50:19;;;;;;;8.85;6.85;;;6.10;99.90;;;;;;5023252;28;20037;-88
2024/02/26 07:52:45;;;;;;;10.32;7.35;;;6.10;99.90;;;;;;5056181;28;20024;-89
2024/02/26 07:55:11;;;;;;;13.15;8.02;;;6.20;99.90;;;;;;5039787;28;20034;-89
2024/02/26 07:57:36;;;;;;;12.73;8.20;;;6.20;99.90;;;;;;5056702;28;20033;-89
2024/02/26 08:00:09;;;;;;;12.20;8.60;;;6.10;99.90;;;;;;5059900;28;20031;-88
2024/02/26 08:02:34;;;;;;;11.98;8.93;;;6.10;99.90;;;;;;5080040;28;20035;-88
2024/02/26 08:05:00;;;;;;;11.00;8.15;;;6.10;99.90;;;;;;5080488;28;20009;-88
2024/02/26 08:07:26;;;;;;;11.07;8.23;;;6.10;99.90;;;;;;5063533;28;20013;-89
2024/02/26 08:09:52;;;;;;;10.63;8.38;;;6.10;99.90;;;;;;5028877;28;20037;-88
2024/02/26 08:12:20;;;;;;;10.77;9.07;;;6.20;99.90;;;;;;5023552;28;20380;-88
2024/02/26 08:14:47;;;;;;;11.43;8.98;;;6.10;99.90;;;;;;5022414;28;20049;-89
2024/02/26 08:17:12;;;;;;;13.40;9.77;;;6.20;99.90;;;;;;5038872;28;20029;-88
2024/02/26 08:19:38;;;;;;;12.73;9.82;;;6.10;99.90;;;;;;5021963;28;20086;-87
2024/02/26 08:22:04;;;;;;;12.32;9.80;;;6.10;99.90;;;;;;5022579;28;20033;-87
2024/02/26 08:24:30;;;;;;;12.93;10.00;;;6.10;99.90;;;;;;5038889;28;20033;-88
2024/02/26 08:26:56;;;;;;;15.55;10.90;;;6.10;99.90;;;;;;5055739;28;20025;-89
2024/02/26 08:29:21;;;;;;;12.02;9.48;;;6.20;99.90;;;;;;5056118;28;20354;-88
2024/02/26 08:31:48;;;;;;;13.20;10.05;;;6.10;99.90;;;;;;5022054;28;20029;-87
2024/02/26 08:34:13;;;;;;;15.18;9.73;;;6.10;99.90;;;;;;5055099;28;20464;-88
2024/02/26 08:36:39;;;;;;;13.63;10.15;;;6.10;99.90;;;;;;5021995;28;20124;-88
2024/02/26 08:39:08;;;;;;;15.40;11.55;;;6.10;99.90;;;;;;5055813;28;20027;-88
2024/02/26 08:41:34;;;;;;;12.80;9.88;;;6.10;99.90;;;;;;5056045;28;20112;-90
2024/02/26 08:44:00;;;;;;;14.27;11.07;;;6.20;99.90;;;;;;5071385;28;20017;-88
2024/02/26 08:46:25;;;;;;;14.05;10.80;;;6.10;99.90;;;;;;5057930;28;20025;-86
2024/02/26 08:48:51;;;;;;;13.25;9.60;;;6.20;99.90;;;;;;5069842;28;20071;-88
2024/02/26 08:51:17;;;;;;;14.80;10.52;;;6.10;99.90;;;;;;5044287;28;20037;-87
2024/02/26 08:53:42;;;;;;;14.68;10.55;;;6.10;99.90;;;;;;5038396;28;20669;-88
2024/02/26 08:56:08;;;;;;;13.65;10.43;;;6.20;99.90;;;;;;5055011;28;20021;-88
2024/02/26 08:58:34;;;;;;;14.85;11.18;;;6.10;99.90;;;;;;5055193;28;20036;-89
2024/02/26 09:00:59;;;;;;;13.75;10.40;;;6.20;99.90;;;;;;5055587;28;20021;-89
2024/02/26 09:03:26;;;;;;;13.02;9.90;;;6.20;99.90;;;;;;5054737;28;20028;-88
2024/02/26 09:05:51;;;;;;;13.73;10.25;;;6.20;99.90;;;;;;5021818;28;20124;-88
2024/02/26 09:08:17;;;;;;;13.02;9.95;;;6.20;99.90;;;;;;5038282;28;20069;-89
2024/02/26 09:10:43;;;;;;;14.30;10.63;;;6.20;99.90;;;;;;5005581;28;20033;-89
2024/02/26 09:13:08;;;;;;;15.15;10.95;;;6.20;99.90;;;;;;5054891;28;20035;-89
2024/02/26 09:15:34;;;;;;;14.63;10.18;;;6.20;99.90;;;;;;5054545;28;20115;-89
2024/02/26 09:18:00;;;;;;;15.32;10.30;;;6.30;99.90;;;;;;5022017;28;20037;-88
2024/02/26 09:20:25;;;;;;;14.88;10.57;;;6.30;99.90;;;;;;5039667;28;20060;-87
2024/02/26 09:22:51;;;;;;;15.25;11.18;;;6.30;99.90;;;;;;5059886;28;20017;-86
2024/02/26 09:25:17;;;;;;;17.08;11.65;;;6.30;99.90;;;;;;5061430;28;20091;-88
2024/02/26 09:27:44;;;;;;;18.17;12.30;;;6.40;99.90;;;;;;5060243;28;20044;-89
2024/02/26 09:30:13;;;;;;;16.38;11.30;;;6.40;99.90;;;;;;5040701;28;20081;-88
2024/02/26 09:32:39;;;;;;;15.10;10.60;;;6.40;99.90;;;;;;5055265;28;20049;-88
2024/02/26 09:35:06;;;;;;;15.43;11.38;;;6.40;99.90;;;;;;5038162;28;20369;-88
2024/02/26 09:37:33;;;;;;;15.73;11.70;;;6.40;99.90;;;;;;5038447;28;20029;-89
2024/02/26 09:40:03;;;;;;;16.73;12.07;;;6.40;99.90;;;;;;5054119;28;20021;-85
2024/02/26 09:42:33;;;;;;;18.55;13.27;;;6.40;99.90;;;;;;5037086;28;20033;-88
2024/02/26 09:45:02;;;;;;;18.45;12.90;;;6.40;99.90;;;;;;5038364;28;20079;-87
2024/02/26 09:47:32;;;;;;;19.85;12.32;;;6.40;99.90;;;;;;5055822;28;20021;-88
2024/02/26 09:50:03;;;;;;;19.17;12.63;;;6.40;99.90;;;;;;5054640;28;20076;-89
2024/02/26 09:52:30;;;;;;;18.02;12.35;;;6.40;99.90;;;;;;5021851;28;20021;-88
2024/02/26 09:54:56;;;;;;;19.80;13.25;;;6.40;99.90;;;;;;5053880;28;20071;-88
2024/02/26 09:57:24;;;;;;;18.42;12.85;;;6.40;99.90;;;;;;5055151;28;20048;-89
2024/02/26 09:59:52;;;;;;;16.85;12.10;;;6.40;99.90;;;;;;5054589;28;20037;-88
2024/02/26 10:02:20;;;;;;;17.10;11.88;;;6.40;99.90;;;;;;5054495;28;20032;-87
2024/02/26 10:04:49;;;;;;;17.13;11.93;;;6.40;99.90;;;;;;5054325;28;20028;-88
2024/02/26 10:07:15;;;;;;;18.58;12.15;;;6.40;99.90;;;;;;5037864;28;20036;-88
2024/02/26 10:09:41;;;;;;;16.38;11.70;;;6.40;99.90;;;;;;5053561;28;20035;-88
2024/02/26 10:12:10;;;;;;;15.32;11.10;;;6.40;99.90;;;;;;5054427;28;20108;-88
2024/02/26 10:14:36;;;;;;;19.02;12.25;;;6.50;99.90;;;;;;5050181;28;20079;-88
2024/02/26 10:17:08;;;;;;;17.38;12.10;;;6.40;99.90;;;;;;5033991;28;20060;-88
2024/02/26 10:19:33;;;;;;;16.17;11.73;;;6.40;99.90;;;;;;5050185;28;20037;-88
2024/02/26 10:22:01;;;;;;;16.10;11.18;;;6.40;99.90;;;;;;5036897;28;20147;-88
2024/02/26 10:24:27;;;;;;;14.75;11.38;;;6.40;99.90;;;;;;5053343;28;20036;-89
2024/02/26 10:27:04;;;;;;;15.77;11.02;;;6.50;99.90;;;;;;5053420;28;20029;-89
2024/02/26 10:29:31;;;;;;;15.60;11.18;;;6.40;99.90;;;;;;5053936;28;20029;-89
2024/02/26 10:31:59;;;;;;;15.82;11.07;;;6.40;99.90;;;;;;5053903;28;20044;-89
2024/02/26 10:34:26;;;;;;;15.93;11.10;;;6.50;99.90;;;;;;5053626;28;20061;-88
2024/02/26 10:36:52;;;;;;;13.57;10.25;;;6.50;99.90;;;;;;5055393;28;20057;-88
2024/02/26 10:39:17;;;;;;;13.95;10.45;;;6.50;99.90;;;;;;5054844;28;20044;-89
2024/02/26 10:41:45;;;;;;;17.88;11.52;;;6.50;99.90;;;;;;5056394;28;20434;-87
2024/02/26 10:44:12;;;;;;;14.82;11.05;;;6.50;99.90;;;;;;5058039;28;20036;-89
2024/02/26 10:46:39;;;;;;;15.00;10.38;;;6.50;99.90;;;;;;5076426;28;20005;-86
2024/02/26 10:49:13;;;;;;;14.88;10.82;;;6.50;99.90;;;;;;5077563;28;20037;-87
2024/02/26 10:51:44;;;;;;;15.48;11.20;;;6.50;99.90;;;;;;5057729;28;20037;-89
2024/02/26 10:54:15;;;;;;;15.48;10.77;;;6.50;99.90;;;;;;5039304;28;20037;-88
2024/02/26 10:56:43;;;;;;;;;;;6.50;99.90;;;;;;5057789;28;20075;-89
2024/02/26 10:59:12;;;;;;;15.40;11.18;;;6.50;99.90;;;;;;5040759;28;19908;-88
2024/02/26 11:01:41;;;;;;;16.20;11.55;;;6.50;99.90;;;;;;5058039;28;20419;-89
2024/02/26 11:04:08;;;;;;;15.70;11.55;;;6.40;99.90;;;;;;5058802;28;20021;-87
2024/02/26 11:06:34;;;;;;;14.10;10.32;;;6.50;99.90;;;;;;5057352;28;20029;-89
2024/02/26 11:09:02;;;;;;;16.33;11.65;;;6.50;99.90;;;;;;5040295;28;20075;-89
2024/02/26 11:11:34;;;;;;;15.70;11.55;;;6.60;99.90;;;;;;5057405;28;20029;-88
2024/02/26 11:14:03;;;;;;;17.67;11.65;;;6.60;99.90;;;;;;5057724;28;20099;-89
2024/02/26 11:16:30;;;;;;;15.50;11.20;;;6.50;99.90;;;;;;5057262;28;20049;-88
2024/02/26 11:19:00;;;;;;;15.40;11.40;;;6.50;99.90;;;;;;5057203;28;20029;-90
2024/02/26 11:21:38;;;;;;;17.63;12.05;;;6.50;99.90;;;;;;5057600;28;20021;-89
2024/02/26 11:24:10;;;;;;;18.25;12.38;;;6.60;99.90;;;;;;5055394;28;20029;-89
2024/02/26 11:26:58;;;;;;;16.92;11.85;;;6.50;99.90;;;;;;5057330;28;20051;-89
2024/02/26 11:29:29;;;;;;;15.48;10.90;;;6.50;99.90;;;;;;5059078;28;20029;-90
2024/02/26 11:31:54;;;;;;;16.75;12.45;;;6.50;99.90;;;;;;5043550;28;20029;-89
2024/02/26 11:34:20;;;;;;;17.48;11.82;;;6.50;99.90;;;;;;5062149;28;20025;-89
2024/02/26 11:36:46;;;;;;;18.02;12.70;;;6.50;99.90;;;;;;5060172;28;20083;-89
2024/02/26 11:39:16;;;;;;;15.98;11.50;;;6.50;99.90;;;;;;5058616;28;20036;-85
2024/02/26 11:41:42;;;;;;;16.23;11.60;;;6.50;99.90;;;;;;5040140;28;20108;-89
2024/02/26 11:44:08;;;;;;;16.90;12.60;;;6.50;99.90;;;;;;5056755;28;20028;-88
2024/02/26 11:46:42;;;;;;;15.85;11.82;;;6.50;99.90;;;;;;5056275;28;20476;-88
2024/02/26 11:49:23;;;;;;;16.42;12.23;;;6.50;99.90;;;;;;5056681;28;20473;-89
2024/02/26 11:51:55;;;;;;;14.88;11.45;;;6.50;99.90;;;;;;5056433;28;20041;-88
2024/02/26 11:54:47;;;;;;;14.27;10.88;;;6.50;99.90;;;;;;5057447;28;20036;-89
2024/02/26 11:57:28;;;;;;;13.95;10.57;;;6.50;99.90;;;;;;5057250;28;20027;-88
2024/02/26 12:00:12;;;;;;;14.80;10.23;;;6.40;99.90;;;;;;5057635;28;20033;-88
2024/02/26 12:02:43;;;;;;;12.23;9.07;;;6.40;99.90;;;;;;5057955;28;20021;-88
2024/02/26 12:05:32;;;;;;;13.60;10.65;;;6.50;99.90;;;;;;5057805;28;20100;-88
2024/02/26 12:08:07;;;;;;;13.98;10.75;;;6.40;99.90;;;;;;5067729;28;20032;-88
2024/02/26 12:10:38;;;;;;;13.77;10.93;;;6.50;99.90;;;;;;5079312;28;20036;-88
2024/02/26 12:13:14;;;;;;;13.32;10.15;;;6.40;99.90;;;;;;5080427;28;20096;-88
2024/02/26 12:15:45;;;;;;;12.63;9.98;;;6.50;99.90;;;;;;5076501;28;20049;-89
2024/02/26 12:18:17;;;;;;;14.40;10.05;;;6.50;99.90;;;;;;5057012;28;20495;-88
2024/02/26 12:20:46;;;;;;;12.35;9.55;;;6.50;99.90;;;;;;5056457;28;20025;-89
2024/02/26 12:23:18;;;;;;;13.40;9.25;;;6.50;99.90;;;;;;5055841;28;20117;-88
2024/02/26 12:25:44;;;;;;;12.52;9.40;;;6.50;99.90;;;;;;5039065;28;20491;-89
2024/02/26 12:28:10;;;;;;;11.82;8.38;;;6.50;99.90;;;;;;5056337;28;20431;-89
2024/02/26 12:30:35;;;;;;;12.07;9.07;;;6.50;99.90;;;;;;5039167;28;20036;-89
2024/02/26 12:33:02;;;;;;;10.93;7.90;;;6.50;99.90;;;;;;5056102;28;20029;-88
2024/02/26 12:35:28;;;;;;;11.65;8.10;;;6.60;99.90;;;;;;5055484;28;20029;-89
2024/02/26 12:37:54;;;;;;;9.43;7.10;;;6.60;99.90;;;;;;5038169;28;20124;-89
2024/02/26 12:40:21;;;;;;;10.95;7.63;;;6.70;99.90;;;;;;5038652;28;20054;-89
2024/02/26 12:42:47;;;;;;;10.18;7.35;;;6.70;99.90;;;;;;5038389;28;20025;-88
2024/02/26 12:45:14;;;;;;;9.48;7.05;;;6.70;99.90;;;;;;5048371;28;20461;-89
2024/02/26 12:47:41;;;;;;;10.13;6.97;;;6.70;99.90;;;;;;5035531;28;20025;-88
2024/02/26 12:50:08;;;;;;;8.00;6.10;;;6.70;99.90;;;;;;5047201;28;20067;-89